sensor_id;sensor_type;location;lat;lon;timestamp;P1;P2;P0
50866;PMS7003;36839;51.946;21.002;2023-06-19T00:00:29;0.00;0.00;0.00
50866;PMS7003;36839;51.946;21.002;2023-06-19T00:03:17;0.00;0.00;0.00
50866;PMS7003;36839;51.946;21.002;2023-06-19T00:05:46;0.00;0.00;0.00
50866;PMS7003;36839;51.946;21.002;2023-06-19T00:08:22;0.00;0.00;0.00
50866;PMS7003;36839;51.946;21.002;2023-06-19T00:10:51;0.00;0.00;0.00
50866;PMS7003;36839;51.946;21.002;2023-06-19T00:13:22;0.00;0.00;0.00
50866;PMS7003;36839;51.946;21.002;2023-06-19T00:15:52;0.00;0.00;0.00
50866;PMS7003;36839;51.946;21.002;2023-06-19T00:18:19;0.00;0.00;0.00
50866;PMS7003;36839;51.946;21.002;2023-06-19T00:20:52;0.00;0.00;0.00
50866;PMS7003;36839;51.946;21.002;2023-06-19T00:23:25;0.00;0.00;0.00
50866;PMS7003;36839;51.946;21.002;2023-06-19T00:25:54;0.00;0.00;0.00
50866;PMS7003;36839;51.946;21.002;2023-06-19T00:28:21;0.00;0.00;0.00
50866;PMS7003;36839;51.946;21.002;2023-06-19T00:30:47;0.00;0.00;0.00
50866;PMS7003;36839;51.946;21.002;2023-06-19T00:33:17;0.00;0.00;0.00
50866;PMS7003;36839;51.946;21.002;2023-06-19T00:35:46;0.00;0.00;0.00
50866;PMS7003;36839;51.946;21.002;2023-06-19T00:38:15;0.00;0.00;0.00
50866;PMS7003;36839;51.946;21.002;2023-06-19T00:40:42;0.00;0.00;0.00
50866;PMS7003;36839;51.946;21.002;2023-06-19T00:43:09;0.00;0.00;0.00
50866;PMS7003;36839;51.946;21.002;2023-06-19T00:45:36;0.00;0.00;0.00
50866;PMS7003;36839;51.946;21.002;2023-06-19T00:48:14;0.00;0.00;0.00
50866;PMS7003;36839;51.946;21.002;2023-06-19T00:50:45;0.00;0.00;0.00
50866;PMS7003;36839;51.946;21.002;2023-06-19T00:53:13;0.00;0.00;0.00
50866;PMS7003;36839;51.946;21.002;2023-06-19T00:55:45;0.00;0.00;0.00
50866;PMS7003;36839;51.946;21.002;2023-06-19T00:58:22;0.00;0.00;0.00
50866;PMS7003;36839;51.946;21.002;2023-06-19T01:00:51;0.00;0.00;0.00
50866;PMS7003;36839;51.946;21.002;2023-06-19T01:03:21;0.00;0.00;0.00
50866;PMS7003;36839;51.946;21.002;2023-06-19T01:05:48;0.00;0.00;0.00
50866;PMS7003;36839;51.946;21.002;2023-06-19T01:08:47;0.00;0.00;0.00
50866;PMS7003;36839;51.946;21.002;2023-06-19T01:11:25;0.00;0.00;0.00
50866;PMS7003;36839;51.946;21.002;2023-06-19T01:14:09;0.00;0.00;0.00
50866;PMS7003;36839;51.946;21.002;2023-06-19T01:16:41;0.00;0.00;0.00
50866;PMS7003;36839;51.946;21.002;2023-06-19T01:19:11;0.00;0.00;0.00
50866;PMS7003;36839;51.946;21.002;2023-06-19T01:21:46;0.00;0.00;0.00
50866;PMS7003;36839;51.946;21.002;2023-06-19T01:24:22;0.00;0.00;0.00
50866;PMS7003;36839;51.946;21.002;2023-06-19T01:26:48;0.00;0.00;0.00
50866;PMS7003;36839;51.946;21.002;2023-06-19T01:29:16;0.00;0.00;0.00
50866;PMS7003;36839;51.946;21.002;2023-06-19T01:32:10;0.00;0.00;0.00
50866;PMS7003;36839;51.946;21.002;2023-06-19T01:34:45;0.00;0.00;0.00
50866;PMS7003;36839;51.946;21.002;2023-06-19T01:37:15;0.00;0.00;0.00
50866;PMS7003;36839;51.946;21.002;2023-06-19T01:40:07;0.00;0.00;0.00
50866;PMS7003;36839;51.946;21.002;2023-06-19T01:42:37;0.00;0.00;0.00
50866;PMS7003;36839;51.946;21.002;2023-06-19T01:45:10;0.00;0.00;0.00
50866;PMS7003;36839;51.946;21.002;2023-06-19T01:47:38;0.00;0.00;0.00
50866;PMS7003;36839;51.946;21.002;2023-06-19T01:50:08;0.00;0.00;0.00
50866;PMS7003;36839;51.946;21.002;2023-06-19T01:52:41;0.00;0.00;0.00
50866;PMS7003;36839;51.946;21.002;2023-06-19T01:55:11;0.00;0.00;0.00
50866;PMS7003;36839;51.946;21.002;2023-06-19T01:57:38;0.00;0.00;0.00
50866;PMS7003;36839;51.946;21.002;2023-06-19T02:00:18;0.00;0.00;0.00
50866;PMS7003;36839;51.946;21.002;2023-06-19T02:02:45;15.00;12.00;10.00
50866;PMS7003;36839;51.946;21.002;2023-06-19T02:05:15;12.50;12.50;10.00
50866;PMS7003;36839;51.946;21.002;2023-06-19T02:07:46;13.00;12.50;10.50
50866;PMS7003;36839;51.946;21.002;2023-06-19T02:10:13;14.00;14.00;11.50
50866;PMS7003;36839;51.946;21.002;2023-06-19T02:12:40;17.00;15.00;12.00
50866;PMS7003;36839;51.946;21.002;2023-06-19T02:15:07;18.00;16.00;11.00
50866;PMS7003;36839;51.946;21.002;2023-06-19T02:17:34;17.50;17.50;12.00
50866;PMS7003;36839;51.946;21.002;2023-06-19T02:20:05;19.00;18.00;12.00
50866;PMS7003;36839;51.946;21.002;2023-06-19T02:22:39;20.00;17.00;13.00
50866;PMS7003;36839;51.946;21.002;2023-06-19T02:25:07;13.50;12.50;9.50
50866;PMS7003;36839;51.946;21.002;2023-06-19T02:27:34;12.00;10.00;8.00
50866;PMS7003;36839;51.946;21.002;2023-06-19T02:30:00;14.00;14.00;11.00
50866;PMS7003;36839;51.946;21.002;2023-06-19T02:32:27;13.00;13.00;10.00
50866;PMS7003;36839;51.946;21.002;2023-06-19T02:34:53;14.00;11.00;10.00
50866;PMS7003;36839;51.946;21.002;2023-06-19T02:37:21;16.00;15.00;10.50
50866;PMS7003;36839;51.946;21.002;2023-06-19T02:39:49;15.50;15.50;11.00
50866;PMS7003;36839;51.946;21.002;2023-06-19T02:42:15;13.00;13.00;10.00
50866;PMS7003;36839;51.946;21.002;2023-06-19T02:44:42;12.00;11.50;10.00
50866;PMS7003;36839;51.946;21.002;2023-06-19T02:47:09;18.00;14.00;11.00
50866;PMS7003;36839;51.946;21.002;2023-06-19T02:49:38;14.00;13.50;10.00
50866;PMS7003;36839;51.946;21.002;2023-06-19T02:52:07;13.00;13.00;10.50
50866;PMS7003;36839;51.946;21.002;2023-06-19T02:54:37;11.50;11.50;9.00
50866;PMS7003;36839;51.946;21.002;2023-06-19T02:57:04;14.00;11.00;8.00
50866;PMS7003;36839;51.946;21.002;2023-06-19T02:59:36;15.00;12.00;9.50
50866;PMS7003;36839;51.946;21.002;2023-06-19T03:02:03;13.00;13.00;11.50
50866;PMS7003;36839;51.946;21.002;2023-06-19T03:04:33;14.00;13.00;9.00
50866;PMS7003;36839;51.946;21.002;2023-06-19T03:06:59;14.00;13.00;10.00
50866;PMS7003;36839;51.946;21.002;2023-06-19T03:09:27;14.00;14.00;12.00
50866;PMS7003;36839;51.946;21.002;2023-06-19T03:11:56;18.00;17.50;12.50
50866;PMS7003;36839;51.946;21.002;2023-06-19T03:14:24;16.00;14.00;11.00
50866;PMS7003;36839;51.946;21.002;2023-06-19T03:16:50;14.00;11.00;8.00
50866;PMS7003;36839;51.946;21.002;2023-06-19T03:19:18;15.00;13.00;10.00
50866;PMS7003;36839;51.946;21.002;2023-06-19T03:21:45;16.00;16.00;12.00
50866;PMS7003;36839;51.946;21.002;2023-06-19T03:24:15;14.33;14.33;11.00
50866;PMS7003;36839;51.946;21.002;2023-06-19T03:26:42;19.50;18.50;14.00
50866;PMS7003;36839;51.946;21.002;2023-06-19T03:29:09;13.00;13.00;10.00
50866;PMS7003;36839;51.946;21.002;2023-06-19T03:31:36;12.00;12.00;10.00
50866;PMS7003;36839;51.946;21.002;2023-06-19T03:34:03;13.00;13.00;11.00
50866;PMS7003;36839;51.946;21.002;2023-06-19T03:36:44;13.00;13.00;10.00
50866;PMS7003;36839;51.946;21.002;2023-06-19T03:39:11;13.50;11.50;9.00
50866;PMS7003;36839;51.946;21.002;2023-06-19T03:41:39;17.50;14.50;12.50
50866;PMS7003;36839;51.946;21.002;2023-06-19T03:44:06;15.33;15.00;10.33
50866;PMS7003;36839;51.946;21.002;2023-06-19T03:46:35;20.00;15.50;11.00
50866;PMS7003;36839;51.946;21.002;2023-06-19T03:49:03;14.50;14.00;11.00
50866;PMS7003;36839;51.946;21.002;2023-06-19T03:51:32;16.50;13.00;10.00
50866;PMS7003;36839;51.946;21.002;2023-06-19T03:53:58;14.50;14.50;11.50
50866;PMS7003;36839;51.946;21.002;2023-06-19T03:56:25;14.00;13.00;10.00
50866;PMS7003;36839;51.946;21.002;2023-06-19T03:58:55;16.00;16.00;13.00
50866;PMS7003;36839;51.946;21.002;2023-06-19T04:01:24;20.50;17.00;12.00
50866;PMS7003;36839;51.946;21.002;2023-06-19T04:03:52;14.00;12.50;10.50
50866;PMS7003;36839;51.946;21.002;2023-06-19T04:06:19;19.00;15.50;13.00
50866;PMS7003;36839;51.946;21.002;2023-06-19T04:08:49;18.00;18.00;14.00
50866;PMS7003;36839;51.946;21.002;2023-06-19T04:11:15;14.00;14.00;11.00
50866;PMS7003;36839;51.946;21.002;2023-06-19T04:13:42;17.00;15.33;11.33
50866;PMS7003;36839;51.946;21.002;2023-06-19T04:16:11;21.00;20.00;14.00
50866;PMS7003;36839;51.946;21.002;2023-06-19T04:18:39;20.00;18.00;12.50
50866;PMS7003;36839;51.946;21.002;2023-06-19T04:21:05;18.00;18.00;15.00
50866;PMS7003;36839;51.946;21.002;2023-06-19T04:23:35;22.50;19.00;13.00
50866;PMS7003;36839;51.946;21.002;2023-06-19T04:26:03;20.00;16.00;13.50
50866;PMS7003;36839;51.946;21.002;2023-06-19T04:28:39;16.00;15.00;12.00
50866;PMS7003;36839;51.946;21.002;2023-06-19T04:31:06;17.50;16.00;11.50
50866;PMS7003;36839;51.946;21.002;2023-06-19T04:33:36;26.50;19.00;16.00
50866;PMS7003;36839;51.946;21.002;2023-06-19T04:36:11;27.00;21.00;15.00
50866;PMS7003;36839;51.946;21.002;2023-06-19T04:38:38;18.00;17.00;13.00
50866;PMS7003;36839;51.946;21.002;2023-06-19T04:41:07;22.00;19.00;14.00
50866;PMS7003;36839;51.946;21.002;2023-06-19T04:43:36;22.50;20.50;15.00
50866;PMS7003;36839;51.946;21.002;2023-06-19T04:46:10;23.50;19.50;14.50
50866;PMS7003;36839;51.946;21.002;2023-06-19T04:48:39;24.00;21.00;15.50
50866;PMS7003;36839;51.946;21.002;2023-06-19T04:51:13;22.00;19.50;14.00
50866;PMS7003;36839;51.946;21.002;2023-06-19T04:53:49;21.00;19.50;15.50
50866;PMS7003;36839;51.946;21.002;2023-06-19T04:56:19;25.00;25.00;15.00
50866;PMS7003;36839;51.946;21.002;2023-06-19T04:58:48;25.00;23.00;16.00
50866;PMS7003;36839;51.946;21.002;2023-06-19T05:01:17;17.00;17.00;14.00
50866;PMS7003;36839;51.946;21.002;2023-06-19T05:03:52;20.00;18.00;13.50
50866;PMS7003;36839;51.946;21.002;2023-06-19T05:06:23;28.00;25.00;17.00
50866;PMS7003;36839;51.946;21.002;2023-06-19T05:08:52;27.00;25.00;18.00
50866;PMS7003;36839;51.946;21.002;2023-06-19T05:11:20;22.50;21.00;15.00
50866;PMS7003;36839;51.946;21.002;2023-06-19T05:13:48;24.00;20.00;14.00
50866;PMS7003;36839;51.946;21.002;2023-06-19T05:16:14;23.00;18.00;13.00
50866;PMS7003;36839;51.946;21.002;2023-06-19T05:18:43;26.00;20.00;13.00
50866;PMS7003;36839;51.946;21.002;2023-06-19T05:21:12;19.50;19.50;15.00
50866;PMS7003;36839;51.946;21.002;2023-06-19T05:23:42;27.00;24.00;14.00
50866;PMS7003;36839;51.946;21.002;2023-06-19T05:26:09;32.00;27.00;16.50
50866;PMS7003;36839;51.946;21.002;2023-06-19T05:28:41;22.00;21.50;16.00
50866;PMS7003;36839;51.946;21.002;2023-06-19T05:31:09;32.50;27.50;16.50
50866;PMS7003;36839;51.946;21.002;2023-06-19T05:33:37;24.50;22.00;16.50
50866;PMS7003;36839;51.946;21.002;2023-06-19T05:36:06;25.00;24.00;16.00
50866;PMS7003;36839;51.946;21.002;2023-06-19T05:38:36;29.00;28.00;19.00
50866;PMS7003;36839;51.946;21.002;2023-06-19T05:41:07;29.00;25.00;16.00
50866;PMS7003;36839;51.946;21.002;2023-06-19T05:43:35;30.00;22.00;16.00
50866;PMS7003;36839;51.946;21.002;2023-06-19T05:46:02;31.00;28.50;20.00
50866;PMS7003;36839;51.946;21.002;2023-06-19T05:48:36;25.50;22.00;16.50
50866;PMS7003;36839;51.946;21.002;2023-06-19T05:51:03;30.00;27.00;22.00
50866;PMS7003;36839;51.946;21.002;2023-06-19T05:53:30;24.00;19.00;14.00
50866;PMS7003;36839;51.946;21.002;2023-06-19T05:56:09;23.00;21.00;15.00
50866;PMS7003;36839;51.946;21.002;2023-06-19T05:58:37;29.00;28.00;18.50
50866;PMS7003;36839;51.946;21.002;2023-06-19T06:01:12;27.00;25.00;17.00
50866;PMS7003;36839;51.946;21.002;2023-06-19T06:03:40;0.00;0.00;0.00
50866;PMS7003;36839;51.946;21.002;2023-06-19T06:06:11;0.00;0.00;0.00
50866;PMS7003;36839;51.946;21.002;2023-06-19T06:08:38;1.50;0.50;0.00
50866;PMS7003;36839;51.946;21.002;2023-06-19T06:11:30;30.00;24.00;16.50
50866;PMS7003;36839;51.946;21.002;2023-06-19T06:14:05;24.00;24.00;17.00
50866;PMS7003;36839;51.946;21.002;2023-06-19T06:16:35;30.00;24.00;16.00
50866;PMS7003;36839;51.946;21.002;2023-06-19T06:19:05;31.00;26.00;17.50
50866;PMS7003;36839;51.946;21.002;2023-06-19T06:21:34;28.00;22.00;18.00
50866;PMS7003;36839;51.946;21.002;2023-06-19T06:24:01;25.50;23.00;13.50
50866;PMS7003;36839;51.946;21.002;2023-06-19T06:26:28;29.00;24.50;17.50
50866;PMS7003;36839;51.946;21.002;2023-06-19T06:28:56;28.00;28.00;19.00
50866;PMS7003;36839;51.946;21.002;2023-06-19T06:31:26;30.00;26.50;21.00
50866;PMS7003;36839;51.946;21.002;2023-06-19T06:33:55;22.00;22.00;16.00
50866;PMS7003;36839;51.946;21.002;2023-06-19T06:36:21;34.00;29.00;20.00
50866;PMS7003;36839;51.946;21.002;2023-06-19T06:38:54;27.00;23.00;16.00
50866;PMS7003;36839;51.946;21.002;2023-06-19T06:41:22;21.00;20.00;16.00
50866;PMS7003;36839;51.946;21.002;2023-06-19T06:43:49;23.50;23.50;17.00
50866;PMS7003;36839;51.946;21.002;2023-06-19T06:46:16;22.00;21.00;15.50
50866;PMS7003;36839;51.946;21.002;2023-06-19T06:48:44;0.00;0.00;0.00
50866;PMS7003;36839;51.946;21.002;2023-06-19T06:51:13;0.00;0.00;0.00
50866;PMS7003;36839;51.946;21.002;2023-06-19T06:53:42;0.00;0.00;0.00
50866;PMS7003;36839;51.946;21.002;2023-06-19T06:56:10;0.00;0.00;0.00
50866;PMS7003;36839;51.946;21.002;2023-06-19T06:58:37;0.00;0.00;0.00
50866;PMS7003;36839;51.946;21.002;2023-06-19T07:01:09;0.00;0.00;0.00
50866;PMS7003;36839;51.946;21.002;2023-06-19T07:03:42;0.00;0.00;0.00
50866;PMS7003;36839;51.946;21.002;2023-06-19T07:06:12;0.00;0.00;0.00
50866;PMS7003;36839;51.946;21.002;2023-06-19T07:08:49;0.00;0.00;0.00
50866;PMS7003;36839;51.946;21.002;2023-06-19T07:11:19;0.00;0.00;0.00
50866;PMS7003;36839;51.946;21.002;2023-06-19T07:13:49;0.00;0.00;0.00
50866;PMS7003;36839;51.946;21.002;2023-06-19T07:16:17;0.00;0.00;0.00
50866;PMS7003;36839;51.946;21.002;2023-06-19T07:18:45;0.00;0.00;0.00
50866;PMS7003;36839;51.946;21.002;2023-06-19T07:21:13;0.00;0.00;0.00
50866;PMS7003;36839;51.946;21.002;2023-06-19T07:23:41;0.00;0.00;0.00
50866;PMS7003;36839;51.946;21.002;2023-06-19T07:26:12;0.00;0.00;0.00
50866;PMS7003;36839;51.946;21.002;2023-06-19T07:28:42;0.00;0.00;0.00
50866;PMS7003;36839;51.946;21.002;2023-06-19T07:31:10;0.00;0.00;0.00
50866;PMS7003;36839;51.946;21.002;2023-06-19T07:33:36;0.00;0.00;0.00
50866;PMS7003;36839;51.946;21.002;2023-06-19T07:36:07;0.00;0.00;0.00
50866;PMS7003;36839;51.946;21.002;2023-06-19T07:38:44;0.00;0.00;0.00
50866;PMS7003;36839;51.946;21.002;2023-06-19T07:41:16;0.00;0.00;0.00
50866;PMS7003;36839;51.946;21.002;2023-06-19T07:43:43;0.00;0.00;0.00
50866;PMS7003;36839;51.946;21.002;2023-06-19T07:46:12;0.00;0.00;0.00
50866;PMS7003;36839;51.946;21.002;2023-06-19T07:48:42;0.00;0.00;0.00
50866;PMS7003;36839;51.946;21.002;2023-06-19T07:51:09;0.00;0.00;0.00
50866;PMS7003;36839;51.946;21.002;2023-06-19T07:53:38;0.00;0.00;0.00
50866;PMS7003;36839;51.946;21.002;2023-06-19T07:56:06;0.00;0.00;0.00
50866;PMS7003;36839;51.946;21.002;2023-06-19T07:58:37;0.00;0.00;0.00
50866;PMS7003;36839;51.946;21.002;2023-06-19T08:01:04;0.00;0.00;0.00
50866;PMS7003;36839;51.946;21.002;2023-06-19T08:03:34;0.00;0.00;0.00
50866;PMS7003;36839;51.946;21.002;2023-06-19T08:06:02;0.00;0.00;0.00
50866;PMS7003;36839;51.946;21.002;2023-06-19T08:08:31;0.00;0.00;0.00
50866;PMS7003;36839;51.946;21.002;2023-06-19T08:11:02;0.00;0.00;0.00
50866;PMS7003;36839;51.946;21.002;2023-06-19T08:13:31;0.00;0.00;0.00
50866;PMS7003;36839;51.946;21.002;2023-06-19T08:16:00;0.00;0.00;0.00
50866;PMS7003;36839;51.946;21.002;2023-06-19T08:18:29;0.00;0.00;0.00
50866;PMS7003;36839;51.946;21.002;2023-06-19T08:20:59;49.00;48.00;40.00
50866;PMS7003;36839;51.946;21.002;2023-06-19T08:23:26;0.00;0.00;0.00
50866;PMS7003;36839;51.946;21.002;2023-06-19T08:25:57;0.00;0.00;0.00
50866;PMS7003;36839;51.946;21.002;2023-06-19T08:28:25;0.00;0.00;0.00
50866;PMS7003;36839;51.946;21.002;2023-06-19T08:30:53;0.00;0.00;0.00
50866;PMS7003;36839;51.946;21.002;2023-06-19T08:33:21;0.00;0.00;0.00
50866;PMS7003;36839;51.946;21.002;2023-06-19T08:35:49;0.00;0.00;0.00
50866;PMS7003;36839;51.946;21.002;2023-06-19T08:38:16;0.00;0.00;0.00
50866;PMS7003;36839;51.946;21.002;2023-06-19T08:40:42;0.00;0.00;0.00
50866;PMS7003;36839;51.946;21.002;2023-06-19T08:43:10;0.00;0.00;0.00
50866;PMS7003;36839;51.946;21.002;2023-06-19T08:45:42;0.00;0.00;0.00
50866;PMS7003;36839;51.946;21.002;2023-06-19T08:48:12;0.00;0.00;0.00
50866;PMS7003;36839;51.946;21.002;2023-06-19T08:50:43;0.00;0.00;0.00
50866;PMS7003;36839;51.946;21.002;2023-06-19T08:53:15;0.00;0.00;0.00
50866;PMS7003;36839;51.946;21.002;2023-06-19T08:55:47;0.00;0.00;0.00
50866;PMS7003;36839;51.946;21.002;2023-06-19T08:58:25;0.00;0.00;0.00
50866;PMS7003;36839;51.946;21.002;2023-06-19T09:00:54;0.00;0.00;0.00
50866;PMS7003;36839;51.946;21.002;2023-06-19T09:03:25;0.00;0.00;0.00
50866;PMS7003;36839;51.946;21.002;2023-06-19T09:05:52;0.00;0.00;0.00
50866;PMS7003;36839;51.946;21.002;2023-06-19T09:08:25;0.00;0.00;0.00
50866;PMS7003;36839;51.946;21.002;2023-06-19T09:10:56;0.00;0.00;0.00
50866;PMS7003;36839;51.946;21.002;2023-06-19T09:13:27;0.00;0.00;0.00
50866;PMS7003;36839;51.946;21.002;2023-06-19T09:16:00;0.00;0.00;0.00
50866;PMS7003;36839;51.946;21.002;2023-06-19T09:18:31;0.00;0.00;0.00
50866;PMS7003;36839;51.946;21.002;2023-06-19T09:21:19;0.00;0.00;0.00
50866;PMS7003;36839;51.946;21.002;2023-06-19T09:23:51;0.00;0.00;0.00
50866;PMS7003;36839;51.946;21.002;2023-06-19T09:26:22;0.00;0.00;0.00
50866;PMS7003;36839;51.946;21.002;2023-06-19T09:28:51;0.00;0.00;0.00
50866;PMS7003;36839;51.946;21.002;2023-06-19T09:31:31;0.00;0.00;0.00
50866;PMS7003;36839;51.946;21.002;2023-06-19T09:34:05;0.00;0.00;0.00
50866;PMS7003;36839;51.946;21.002;2023-06-19T09:36:41;0.00;0.00;0.00
50866;PMS7003;36839;51.946;21.002;2023-06-19T09:39:11;0.00;0.00;0.00
50866;PMS7003;36839;51.946;21.002;2023-06-19T09:41:42;0.00;0.00;0.00
50866;PMS7003;36839;51.946;21.002;2023-06-19T09:44:15;0.00;0.00;0.00
50866;PMS7003;36839;51.946;21.002;2023-06-19T09:46:44;0.00;0.00;0.00
50866;PMS7003;36839;51.946;21.002;2023-06-19T09:49:17;0.00;0.00;0.00
50866;PMS7003;36839;51.946;21.002;2023-06-19T09:51:51;0.00;0.00;0.00
50866;PMS7003;36839;51.946;21.002;2023-06-19T09:54:17;0.00;0.00;0.00
50866;PMS7003;36839;51.946;21.002;2023-06-19T09:56:52;0.00;0.00;0.00
50866;PMS7003;36839;51.946;21.002;2023-06-19T09:59:22;0.00;0.00;0.00
50866;PMS7003;36839;51.946;21.002;2023-06-19T10:01:59;0.00;0.00;0.00
50866;PMS7003;36839;51.946;21.002;2023-06-19T10:04:45;0.00;0.00;0.00
50866;PMS7003;36839;51.946;21.002;2023-06-19T10:12:41;0.00;0.00;0.00
50866;PMS7003;36839;51.946;21.002;2023-06-19T10:15:32;0.00;0.00;0.00
50866;PMS7003;36839;51.946;21.002;2023-06-19T10:18:00;0.00;0.00;0.00
50866;PMS7003;36839;51.946;21.002;2023-06-19T10:20:32;0.00;0.00;0.00
50866;PMS7003;36839;51.946;21.002;2023-06-19T10:23:07;0.00;0.00;0.00
50866;PMS7003;36839;51.946;21.002;2023-06-19T10:25:36;0.00;0.00;0.00
50866;PMS7003;36839;51.946;21.002;2023-06-19T10:28:24;0.00;0.00;0.00
50866;PMS7003;36839;51.946;21.002;2023-06-19T10:33:35;0.00;0.00;0.00
50866;PMS7003;36839;51.946;21.002;2023-06-19T10:41:27;0.00;0.00;0.00
50866;PMS7003;36839;51.946;21.002;2023-06-19T10:44:07;0.00;0.00;0.00
50866;PMS7003;36839;51.946;21.002;2023-06-19T10:46:40;0.00;0.00;0.00
50866;PMS7003;36839;51.946;21.002;2023-06-19T10:49:10;0.00;0.00;0.00
50866;PMS7003;36839;51.946;21.002;2023-06-19T10:51:48;0.00;0.00;0.00
50866;PMS7003;36839;51.946;21.002;2023-06-19T10:54:57;0.00;0.00;0.00
50866;PMS7003;36839;51.946;21.002;2023-06-19T10:57:45;0.00;0.00;0.00
50866;PMS7003;36839;51.946;21.002;2023-06-19T11:00:21;0.00;0.00;0.00
50866;PMS7003;36839;51.946;21.002;2023-06-19T11:03:13;0.00;0.00;0.00
50866;PMS7003;36839;51.946;21.002;2023-06-19T11:05:53;0.00;0.00;0.00
50866;PMS7003;36839;51.946;21.002;2023-06-19T11:08:21;0.00;0.00;0.00
50866;PMS7003;36839;51.946;21.002;2023-06-19T11:10:48;0.00;0.00;0.00
50866;PMS7003;36839;51.946;21.002;2023-06-19T11:13:18;0.00;0.00;0.00
50866;PMS7003;36839;51.946;21.002;2023-06-19T11:15:49;0.00;0.00;0.00
50866;PMS7003;36839;51.946;21.002;2023-06-19T11:18:18;0.00;0.00;0.00
50866;PMS7003;36839;51.946;21.002;2023-06-19T11:20:49;0.00;0.00;0.00
50866;PMS7003;36839;51.946;21.002;2023-06-19T11:23:27;0.00;0.00;0.00
50866;PMS7003;36839;51.946;21.002;2023-06-19T11:26:04;0.00;0.00;0.00
50866;PMS7003;36839;51.946;21.002;2023-06-19T11:28:31;0.00;0.00;0.00
50866;PMS7003;36839;51.946;21.002;2023-06-19T11:31:00;0.00;0.00;0.00
50866;PMS7003;36839;51.946;21.002;2023-06-19T11:33:29;0.00;0.00;0.00
50866;PMS7003;36839;51.946;21.002;2023-06-19T11:36:01;0.00;0.00;0.00
50866;PMS7003;36839;51.946;21.002;2023-06-19T11:38:36;0.00;0.00;0.00
50866;PMS7003;36839;51.946;21.002;2023-06-19T11:41:24;0.00;0.00;0.00
50866;PMS7003;36839;51.946;21.002;2023-06-19T11:44:04;0.00;0.00;0.00
50866;PMS7003;36839;51.946;21.002;2023-06-19T11:46:37;0.00;0.00;0.00
50866;PMS7003;36839;51.946;21.002;2023-06-19T11:49:14;1.00;1.00;1.00
50866;PMS7003;36839;51.946;21.002;2023-06-19T11:52:01;0.00;0.00;0.00
50866;PMS7003;36839;51.946;21.002;2023-06-19T11:54:35;0.00;0.00;0.00
50866;PMS7003;36839;51.946;21.002;2023-06-19T11:57:02;0.00;0.00;0.00
50866;PMS7003;36839;51.946;21.002;2023-06-19T11:59:33;0.00;0.00;0.00
50866;PMS7003;36839;51.946;21.002;2023-06-19T12:02:00;1.00;1.00;1.00
50866;PMS7003;36839;51.946;21.002;2023-06-19T12:04:26;0.00;0.00;0.00
50866;PMS7003;36839;51.946;21.002;2023-06-19T12:06:55;0.00;0.00;0.00
50866;PMS7003;36839;51.946;21.002;2023-06-19T12:09:22;0.00;0.00;0.00
50866;PMS7003;36839;51.946;21.002;2023-06-19T12:11:50;0.00;0.00;0.00
50866;PMS7003;36839;51.946;21.002;2023-06-19T12:14:19;0.00;0.00;0.00
50866;PMS7003;36839;51.946;21.002;2023-06-19T12:16:47;0.00;0.00;0.00
50866;PMS7003;36839;51.946;21.002;2023-06-19T12:19:14;0.00;0.00;0.00
50866;PMS7003;36839;51.946;21.002;2023-06-19T12:21:43;0.00;0.00;0.00
50866;PMS7003;36839;51.946;21.002;2023-06-19T12:24:12;0.00;0.00;0.00
50866;PMS7003;36839;51.946;21.002;2023-06-19T12:26:40;0.00;0.00;0.00
50866;PMS7003;36839;51.946;21.002;2023-06-19T12:29:06;0.00;0.00;0.00
50866;PMS7003;36839;51.946;21.002;2023-06-19T12:31:34;0.00;0.00;0.00
50866;PMS7003;36839;51.946;21.002;2023-06-19T12:34:05;0.00;0.00;0.00
50866;PMS7003;36839;51.946;21.002;2023-06-19T12:36:48;0.00;0.00;0.00
50866;PMS7003;36839;51.946;21.002;2023-06-19T12:39:17;0.00;0.00;0.00
50866;PMS7003;36839;51.946;21.002;2023-06-19T12:41:45;0.00;0.00;0.00
50866;PMS7003;36839;51.946;21.002;2023-06-19T12:44:16;0.00;0.00;0.00
50866;PMS7003;36839;51.946;21.002;2023-06-19T12:46:44;0.00;0.00;0.00
50866;PMS7003;36839;51.946;21.002;2023-06-19T12:49:14;0.00;0.00;0.00
50866;PMS7003;36839;51.946;21.002;2023-06-19T12:51:45;0.00;0.00;0.00
50866;PMS7003;36839;51.946;21.002;2023-06-19T12:54:18;0.00;0.00;0.00
50866;PMS7003;36839;51.946;21.002;2023-06-19T12:56:54;0.00;0.00;0.00
50866;PMS7003;36839;51.946;21.002;2023-06-19T12:59:23;0.00;0.00;0.00
50866;PMS7003;36839;51.946;21.002;2023-06-19T13:02:00;0.00;0.00;0.00
50866;PMS7003;36839;51.946;21.002;2023-06-19T13:04:28;0.00;0.00;0.00
50866;PMS7003;36839;51.946;21.002;2023-06-19T13:06:56;0.00;0.00;0.00
50866;PMS7003;36839;51.946;21.002;2023-06-19T13:09:25;0.00;0.00;0.00
50866;PMS7003;36839;51.946;21.002;2023-06-19T13:12:03;0.00;0.00;0.00
50866;PMS7003;36839;51.946;21.002;2023-06-19T13:14:30;0.00;0.00;0.00
50866;PMS7003;36839;51.946;21.002;2023-06-19T13:16:59;0.00;0.00;0.00
50866;PMS7003;36839;51.946;21.002;2023-06-19T13:19:35;0.00;0.00;0.00
50866;PMS7003;36839;51.946;21.002;2023-06-19T13:22:12;0.00;0.00;0.00
50866;PMS7003;36839;51.946;21.002;2023-06-19T13:24:41;0.00;0.00;0.00
50866;PMS7003;36839;51.946;21.002;2023-06-19T13:27:11;0.00;0.00;0.00
50866;PMS7003;36839;51.946;21.002;2023-06-19T13:29:41;0.50;0.50;0.50
50866;PMS7003;36839;51.946;21.002;2023-06-19T13:32:09;17.00;15.00;11.00
50866;PMS7003;36839;51.946;21.002;2023-06-19T13:34:41;13.00;11.50;10.50
50866;PMS7003;36839;51.946;21.002;2023-06-19T13:37:09;16.00;15.00;11.50
50866;PMS7003;36839;51.946;21.002;2023-06-19T13:39:38;15.00;13.00;10.00
50866;PMS7003;36839;51.946;21.002;2023-06-19T13:42:05;14.00;14.00;13.00
50866;PMS7003;36839;51.946;21.002;2023-06-19T13:44:33;15.00;12.50;11.00
50866;PMS7003;36839;51.946;21.002;2023-06-19T13:47:10;14.00;14.00;11.00
50866;PMS7003;36839;51.946;21.002;2023-06-19T13:49:37;17.00;16.00;12.00
50866;PMS7003;36839;51.946;21.002;2023-06-19T13:52:09;18.00;14.00;11.00
50866;PMS7003;36839;51.946;21.002;2023-06-19T13:54:35;14.00;13.00;11.00
50866;PMS7003;36839;51.946;21.002;2023-06-19T13:57:02;15.00;15.00;12.00
50866;PMS7003;36839;51.946;21.002;2023-06-19T13:59:30;36.50;33.00;23.00
50866;PMS7003;36839;51.946;21.002;2023-06-19T14:01:58;21.50;19.50;15.00
50866;PMS7003;36839;51.946;21.002;2023-06-19T14:04:34;14.00;14.00;9.50
50866;PMS7003;36839;51.946;21.002;2023-06-19T14:07:07;15.00;15.00;12.00
50866;PMS7003;36839;51.946;21.002;2023-06-19T14:09:35;13.00;12.50;9.00
50866;PMS7003;36839;51.946;21.002;2023-06-19T14:12:04;16.50;14.00;11.00
50866;PMS7003;36839;51.946;21.002;2023-06-19T14:14:33;17.00;16.00;13.00
50866;PMS7003;36839;51.946;21.002;2023-06-19T14:16:59;13.50;13.50;11.00
50866;PMS7003;36839;51.946;21.002;2023-06-19T14:19:31;16.00;15.00;11.00
50866;PMS7003;36839;51.946;21.002;2023-06-19T14:21:58;17.33;14.67;11.33
50866;PMS7003;36839;51.946;21.002;2023-06-19T14:24:25;16.00;13.00;10.00
50866;PMS7003;36839;51.946;21.002;2023-06-19T14:26:53;16.00;12.50;9.50
50866;PMS7003;36839;51.946;21.002;2023-06-19T14:29:23;15.00;14.00;11.00